createdAt,value
2022-07-29T00:02:17.214Z,5.80
2022-07-29T00:04:49.418Z,5.40
2022-07-29T00:07:22.563Z,4.30
2022-07-29T00:09:54.845Z,4.70
2022-07-29T00:12:28.485Z,4.00
2022-07-29T00:15:02.025Z,3.80
2022-07-29T00:17:35.096Z,4.40
2022-07-29T00:20:09.518Z,3.60
2022-07-29T00:22:45.205Z,5.30
2022-07-29T00:25:17.603Z,7.90
2022-07-29T00:27:49.751Z,3.70
2022-07-29T00:30:23.282Z,7.10
2022-07-29T00:32:55.418Z,4.60
2022-07-29T00:35:46.040Z,5.70
2022-07-29T00:40:50.300Z,5.90
2022-07-29T00:43:22.654Z,6.10
2022-07-29T00:45:55.067Z,4.60
2022-07-29T00:48:27.661Z,6.00
2022-07-29T00:51:02.095Z,7.60
2022-07-29T00:53:36.305Z,5.60
2022-07-29T00:56:09.185Z,4.80
2022-07-29T00:58:42.607Z,6.10
2022-07-29T01:01:14.864Z,7.80
2022-07-29T01:03:47.803Z,4.60
2022-07-29T01:06:21.247Z,5.80
2022-07-29T01:08:53.780Z,7.90
2022-07-29T01:11:26.276Z,3.60
2022-07-29T01:13:59.191Z,7.00
2022-07-29T01:16:39.802Z,4.80
2022-07-29T01:19:24.926Z,3.80
2022-07-29T01:22:00.337Z,3.90
2022-07-29T01:24:53.842Z,6.60
2022-07-29T01:27:40.752Z,4.60
2022-07-29T01:30:15.692Z,5.50
2022-07-29T01:32:55.021Z,3.80
2022-07-29T01:35:34.140Z,6.00
2022-07-29T01:38:14.777Z,5.70
2022-07-29T01:40:55.282Z,4.20
2022-07-29T01:43:36.685Z,4.50
2022-07-29T01:46:16.022Z,4.20
2022-07-29T01:48:54.472Z,4.90
2022-07-29T01:51:43.093Z,6.00
2022-07-29T01:54:21.943Z,7.20
2022-07-29T01:56:57.737Z,4.30
2022-07-29T01:59:35.889Z,6.20
2022-07-29T02:02:13.345Z,4.40
2022-07-29T02:04:49.593Z,7.20
2022-07-29T02:07:25.937Z,6.60
2022-07-29T02:09:59.340Z,4.80
2022-07-29T02:12:34.341Z,7.50
2022-07-29T02:15:10.882Z,6.80
2022-07-29T02:17:47.532Z,5.30
2022-07-29T02:20:20.279Z,6.00
2022-07-29T02:22:54.382Z,5.30
2022-07-29T02:25:37.059Z,5.30
2022-07-29T02:28:11.518Z,4.90
2022-07-29T02:30:46.375Z,5.40
2022-07-29T02:33:20.847Z,5.40
2022-07-29T02:35:54.431Z,3.90
2022-07-29T02:38:47.930Z,5.00
2022-07-29T02:41:25.106Z,5.00
2022-07-29T02:44:00.874Z,5.80
2022-07-29T02:46:36.781Z,7.40
2022-07-29T02:49:17.904Z,10.20
2022-07-29T02:51:55.238Z,8.30
2022-07-29T02:54:33.996Z,8.70
2022-07-29T02:57:17.016Z,8.30
2022-07-29T02:59:54.161Z,7.00
2022-07-29T03:02:29.206Z,11.30
2022-07-29T03:05:06.525Z,11.00
2022-07-29T03:07:41.000Z,7.50
2022-07-29T03:10:15.772Z,4.40
2022-07-29T03:12:48.874Z,4.10
2022-07-29T03:15:22.275Z,5.40
2022-07-29T03:17:57.949Z,4.10
2022-07-29T03:20:30.435Z,8.80
2022-07-29T03:23:04.136Z,4.60
2022-07-29T03:25:37.001Z,6.90
2022-07-29T03:28:09.777Z,7.20
2022-07-29T03:30:42.122Z,6.40
2022-07-29T03:33:17.450Z,5.30
2022-07-29T03:35:50.170Z,5.90
2022-07-29T03:38:26.269Z,8.90
2022-07-29T03:41:02.737Z,4.10
2022-07-29T03:43:38.764Z,8.80
2022-07-29T03:46:26.780Z,5.80
2022-07-29T03:49:02.200Z,5.70
2022-07-29T03:51:37.622Z,7.10
2022-07-29T03:54:10.795Z,4.60
2022-07-29T03:56:47.411Z,5.00
2022-07-29T03:59:20.900Z,4.40
2022-07-29T04:01:54.163Z,3.80
2022-07-29T04:04:27.321Z,4.00
2022-07-29T04:07:01.355Z,4.80
2022-07-29T04:09:33.686Z,8.00
2022-07-29T04:12:07.678Z,8.00
2022-07-29T04:14:40.233Z,5.70
2022-07-29T04:17:12.546Z,9.40
2022-07-29T04:19:44.694Z,4.80
2022-07-29T04:22:17.080Z,4.90
2022-07-29T04:24:49.334Z,6.10
2022-07-29T04:27:22.256Z,3.80
2022-07-29T04:29:56.843Z,4.80
2022-07-29T04:32:29.962Z,3.00
2022-07-29T04:35:02.932Z,5.90
2022-07-29T04:37:35.125Z,6.20
2022-07-29T04:40:09.310Z,3.80
2022-07-29T04:42:46.782Z,5.30
2022-07-29T04:45:22.496Z,4.70
2022-07-29T04:47:55.118Z,4.50
2022-07-29T04:50:28.274Z,4.00
2022-07-29T04:53:00.817Z,6.80
2022-07-29T04:55:33.134Z,5.10
2022-07-29T04:58:05.518Z,7.00
2022-07-29T05:00:37.956Z,6.00
2022-07-29T05:03:10.372Z,5.10
2022-07-29T05:05:43.310Z,6.30
2022-07-29T05:08:15.690Z,5.60
2022-07-29T05:10:48.060Z,5.50
2022-07-29T05:13:21.315Z,7.50
2022-07-29T05:15:53.741Z,12.30
2022-07-29T05:18:26.367Z,4.90
2022-07-29T05:20:58.930Z,4.60
2022-07-29T05:23:34.244Z,4.70
2022-07-29T05:26:06.540Z,9.10
2022-07-29T05:28:39.410Z,6.20
2022-07-29T05:31:11.724Z,3.90
2022-07-29T05:33:44.078Z,5.10
2022-07-29T05:36:19.488Z,7.30
2022-07-29T05:38:53.206Z,5.30
2022-07-29T05:41:26.027Z,4.30
2022-07-29T05:43:58.787Z,4.20
2022-07-29T05:46:31.600Z,2.70
2022-07-29T05:49:04.043Z,6.10
2022-07-29T05:51:36.935Z,8.40
2022-07-29T05:54:09.686Z,5.40
2022-07-29T05:56:41.796Z,2.70
2022-07-29T05:59:18.249Z,4.40
2022-07-29T06:01:50.655Z,2.50
2022-07-29T06:04:23.134Z,3.20
2022-07-29T06:06:55.552Z,4.50
2022-07-29T06:09:29.324Z,4.50
2022-07-29T06:12:01.790Z,3.40
2022-07-29T06:14:34.339Z,4.40
2022-07-29T06:17:06.913Z,3.80
2022-07-29T06:19:39.824Z,4.20
2022-07-29T06:22:11.981Z,8.10
2022-07-29T06:24:45.045Z,4.40
2022-07-29T06:27:17.492Z,5.50
2022-07-29T06:29:49.825Z,5.60
2022-07-29T06:32:22.909Z,3.20
2022-07-29T06:35:11.786Z,5.10
2022-07-29T06:37:48.894Z,4.60
2022-07-29T06:40:35.792Z,5.80
2022-07-29T06:43:09.826Z,6.70
2022-07-29T06:45:43.940Z,3.50
2022-07-29T09:09:17.615Z,2.90
2022-07-29T09:11:47.257Z,3.80
2022-07-29T09:14:16.417Z,4.90
2022-07-29T09:16:54.447Z,4.50
2022-07-29T09:19:28.739Z,5.00
2022-07-29T09:21:59.647Z,7.20
2022-07-29T09:24:39.221Z,4.40
2022-07-29T09:27:19.555Z,6.10
2022-07-29T09:32:18.017Z,5.20
2022-07-29T09:34:49.274Z,6.50
2022-07-29T09:37:28.699Z,5.40
2022-07-29T09:39:58.108Z,9.40
2022-07-29T09:42:33.280Z,4.80
2022-07-29T09:45:02.971Z,4.30
2022-07-29T09:47:46.122Z,2.90
2022-07-29T09:50:15.415Z,9.10
2022-07-29T09:52:49.306Z,4.00
2022-07-29T09:55:19.967Z,6.10
2022-07-29T09:57:48.979Z,5.90
2022-07-29T10:00:19.729Z,3.10
2022-07-29T10:02:49.728Z,4.70
2022-07-29T10:05:20.975Z,9.00
2022-07-29T10:07:54.200Z,6.40
2022-07-29T10:10:25.498Z,11.20
2022-07-29T10:12:58.018Z,5.30
2022-07-29T10:15:32.371Z,6.00
2022-07-29T10:18:01.536Z,3.80
2022-07-29T10:20:31.121Z,7.80
2022-07-29T10:23:00.410Z,6.80
2022-07-29T10:25:29.486Z,9.70
2022-07-29T10:27:58.969Z,3.50
2022-07-29T10:30:28.347Z,4.00
2022-07-29T10:33:19.127Z,2.90
2022-07-29T10:36:12.900Z,5.50
2022-07-29T10:38:53.586Z,4.40
2022-07-29T10:44:22.911Z,5.40
2022-07-29T10:46:56.827Z,4.80
2022-07-29T10:49:30.467Z,4.00
2022-07-29T10:52:05.858Z,5.40
2022-07-29T10:54:53.010Z,5.40
2022-07-29T10:57:52.571Z,5.80
2022-07-29T11:00:32.102Z,6.90
2022-07-29T11:03:04.386Z,4.90
2022-07-29T11:05:53.824Z,4.40
2022-07-29T11:08:27.726Z,9.20
2022-07-29T11:11:37.021Z,6.70
2022-07-29T11:14:10.193Z,5.80
2022-07-29T11:17:06.426Z,6.90
2022-07-29T11:19:40.172Z,6.30
2022-07-29T11:22:11.263Z,6.50
2022-07-29T11:24:50.155Z,5.90
2022-07-29T11:27:22.336Z,6.50
2022-07-29T11:29:56.325Z,12.00
2022-07-29T11:32:36.848Z,10.00
2022-07-29T11:35:18.984Z,4.70
2022-07-29T11:38:09.545Z,5.50
2022-07-29T11:40:40.218Z,5.10
2022-07-29T11:43:36.153Z,4.30
2022-07-29T11:46:10.151Z,6.50
2022-07-29T11:48:43.705Z,9.60
2022-07-29T11:51:15.325Z,4.50
2022-07-29T11:56:44.039Z,5.10
2022-07-29T11:59:15.125Z,5.20
2022-07-29T12:02:06.832Z,7.10
2022-07-29T12:04:51.536Z,4.00
2022-07-29T12:07:34.724Z,5.50
2022-07-29T12:10:06.288Z,6.20
2022-07-29T12:12:35.857Z,6.20
2022-07-29T12:15:18.053Z,14.30
2022-07-29T12:17:49.620Z,6.30
2022-07-29T12:20:25.346Z,4.00
2022-07-29T12:22:55.296Z,7.00
2022-07-29T12:25:33.750Z,9.90
2022-07-29T12:28:05.178Z,4.20
2022-07-29T12:30:40.253Z,6.00
2022-07-29T12:33:20.664Z,7.00
2022-07-29T12:36:06.142Z,6.00
2022-07-29T12:38:37.679Z,7.30
2022-07-29T12:41:06.698Z,6.80
2022-07-29T12:43:35.651Z,6.70
2022-07-29T12:46:15.276Z,6.00
2022-07-29T12:48:44.888Z,4.40
2022-07-29T12:51:15.242Z,5.10
2022-07-29T12:56:46.554Z,6.50
2022-07-29T12:59:19.436Z,5.50
2022-07-29T13:12:15.564Z,6.00
2022-07-29T13:14:46.071Z,6.00
2022-07-29T13:17:17.007Z,4.50
2022-07-29T13:19:47.600Z,4.50
2022-07-29T13:22:18.459Z,4.40
2022-07-29T13:24:52.718Z,7.90
2022-07-29T13:27:24.082Z,9.90
2022-07-29T13:29:53.617Z,9.60
2022-07-29T13:32:28.788Z,7.70
2022-07-29T13:34:59.663Z,10.70
2022-07-29T13:37:29.946Z,12.80
2022-07-29T13:42:27.426Z,12.00
2022-07-29T13:44:56.329Z,7.10
2022-07-29T13:47:32.834Z,6.00
2022-07-29T13:50:10.211Z,7.90
2022-07-29T13:52:39.147Z,5.90
2022-07-29T13:55:10.164Z,6.80
2022-07-29T13:57:39.171Z,6.80
2022-07-29T14:00:10.651Z,8.40
2022-07-29T14:02:39.462Z,5.10
2022-07-29T14:05:10.139Z,7.50
2022-07-29T14:07:39.500Z,7.80
2022-07-29T14:10:09.678Z,9.50
2022-07-29T14:12:38.630Z,8.30
2022-07-29T14:15:09.177Z,6.60
2022-07-29T14:17:37.998Z,7.40
2022-07-29T14:20:08.373Z,9.80
2022-07-29T14:22:42.345Z,7.40
2022-07-29T14:25:15.051Z,6.40
2022-07-29T14:27:44.647Z,9.00
2022-07-29T14:30:14.873Z,7.10
2022-07-29T14:32:43.646Z,13.10
2022-07-29T14:35:12.537Z,8.80
2022-07-29T14:37:42.119Z,8.80
2022-07-29T14:40:12.023Z,10.10
2022-07-29T14:42:41.033Z,8.20
2022-07-29T14:45:10.572Z,9.20
2022-07-29T14:47:40.109Z,6.50
2022-07-29T14:50:10.642Z,10.20
2022-07-29T14:52:39.800Z,9.70
2022-07-29T14:55:16.623Z,11.40
2022-07-29T15:00:18.080Z,11.10
2022-07-29T15:03:02.019Z,7.40
2022-07-29T15:05:32.511Z,9.40
2022-07-29T15:08:01.610Z,8.40
2022-07-29T15:10:30.785Z,9.30
2022-07-29T15:12:59.556Z,10.30
2022-07-29T15:15:29.464Z,7.90
2022-07-29T15:17:58.323Z,10.90
2022-07-29T15:20:27.479Z,7.00
2022-07-29T15:22:56.649Z,9.50
2022-07-29T15:25:26.406Z,11.00
2022-07-29T15:28:01.271Z,10.50
2022-07-29T15:30:33.317Z,9.90
2022-07-29T15:33:04.226Z,10.50
2022-07-29T15:35:40.559Z,12.90
2022-07-29T15:38:09.858Z,7.00
2022-07-29T15:40:40.681Z,6.50
2022-07-29T15:43:09.540Z,7.20
2022-07-29T15:45:40.513Z,6.70
2022-07-29T15:48:14.568Z,10.10
2022-07-29T15:50:43.804Z,7.40
2022-07-29T15:53:16.071Z,6.80
2022-07-29T15:55:44.882Z,9.70
2022-07-29T15:58:16.972Z,9.10
2022-07-29T16:00:45.896Z,9.40
2022-07-29T16:03:15.617Z,9.00
2022-07-29T16:05:44.814Z,7.50
2022-07-29T16:08:13.636Z,8.30
2022-07-29T16:10:42.546Z,8.10
2022-07-29T16:13:11.280Z,8.90
2022-07-29T16:16:02.641Z,9.60
2022-07-29T16:18:32.652Z,8.00
2022-07-29T16:21:01.371Z,9.20
2022-07-29T16:23:30.165Z,16.00
2022-07-29T16:26:00.561Z,9.80
2022-07-29T16:28:30.840Z,10.50
2022-07-29T16:31:00.116Z,9.50
2022-07-29T16:33:29.017Z,11.10
2022-07-29T16:36:18.475Z,9.40
2022-07-29T16:38:48.069Z,11.80
2022-07-29T16:41:16.794Z,8.50
2022-07-29T16:43:45.761Z,12.40
2022-07-29T16:46:15.611Z,8.80
2022-07-29T16:48:49.031Z,9.90
2022-07-29T16:51:17.883Z,12.40
2022-07-29T16:53:50.344Z,15.40
2022-07-29T16:56:19.347Z,9.40
2022-07-29T16:58:48.222Z,11.60
2022-07-29T17:01:17.582Z,7.50
2022-07-29T17:04:04.862Z,8.60
2022-07-29T17:06:35.309Z,11.50
2022-07-29T17:09:06.397Z,7.70
2022-07-29T17:11:53.568Z,12.80
2022-07-29T17:14:25.263Z,11.70
2022-07-29T17:17:01.177Z,9.40
2022-07-29T17:19:31.989Z,10.20
2022-07-29T17:22:10.498Z,14.60
2022-07-29T17:24:41.977Z,12.70
2022-07-29T17:27:11.205Z,8.90
2022-07-29T17:29:40.285Z,8.20
2022-07-29T17:32:10.194Z,10.30
2022-07-29T17:34:41.071Z,8.90
2022-07-29T17:37:11.451Z,8.00
2022-07-29T17:39:42.050Z,8.90
2022-07-29T17:42:13.304Z,8.70
2022-07-29T17:44:42.490Z,9.90
2022-07-29T17:47:16.516Z,9.40
2022-07-29T17:49:46.657Z,11.10
2022-07-29T17:52:17.740Z,8.30
2022-07-29T17:54:48.595Z,13.50
2022-07-29T17:57:17.492Z,10.50
2022-07-29T17:59:46.283Z,13.10
2022-07-29T18:02:15.216Z,18.40
2022-07-29T18:04:44.136Z,25.40
2022-07-29T18:07:13.059Z,21.00
2022-07-29T18:09:41.931Z,21.90
2022-07-29T18:12:11.537Z,30.50
2022-07-29T18:14:40.579Z,22.40
2022-07-29T18:17:09.472Z,19.80
2022-07-29T18:19:38.297Z,20.50
2022-07-29T18:22:09.810Z,12.60
2022-07-29T18:24:39.109Z,18.10
2022-07-29T18:27:08.080Z,15.90
2022-07-29T18:29:37.194Z,12.40
2022-07-29T18:32:07.396Z,15.90
2022-07-29T18:34:36.592Z,17.00
2022-07-29T18:37:05.434Z,13.50
2022-07-29T18:39:35.478Z,11.70
2022-07-29T18:42:07.704Z,12.50
2022-07-29T18:44:43.595Z,11.00
2022-07-29T18:47:17.960Z,10.10
2022-07-29T18:49:46.994Z,12.50
2022-07-29T18:52:16.052Z,10.50
2022-07-29T18:54:45.234Z,10.20
2022-07-29T18:57:54.745Z,11.50
2022-07-29T19:00:10.377Z,16.20
2022-07-29T19:02:44.678Z,10.90
2022-07-29T19:05:16.759Z,15.20
2022-07-29T19:07:45.632Z,12.70
2022-07-29T19:10:14.822Z,11.60
2022-07-29T19:12:43.740Z,11.40
2022-07-29T19:15:12.849Z,11.20
2022-07-29T19:17:49.546Z,11.30
2022-07-29T19:20:18.417Z,10.70
2022-07-29T19:22:47.254Z,11.60
2022-07-29T19:25:16.380Z,13.50
2022-07-29T19:27:46.179Z,8.80
2022-07-29T19:30:15.401Z,13.30
2022-07-29T19:32:44.674Z,10.70
2022-07-29T19:35:31.012Z,10.20
2022-07-29T19:38:02.351Z,11.20
2022-07-29T19:40:32.570Z,10.20
2022-07-29T19:43:02.915Z,9.90
2022-07-29T19:45:52.303Z,13.10
2022-07-29T19:48:24.007Z,12.30
2022-07-29T19:50:54.954Z,12.40
2022-07-29T19:53:23.781Z,10.90
2022-07-29T19:55:53.124Z,13.00
2022-07-29T19:58:22.494Z,13.90
2022-07-29T20:00:57.804Z,13.20
2022-07-29T20:03:27.160Z,9.40
2022-07-29T20:05:55.988Z,9.70
2022-07-29T20:08:24.808Z,11.20
2022-07-29T20:10:55.446Z,11.70
2022-07-29T20:13:24.347Z,9.10
2022-07-29T20:15:53.294Z,13.10
2022-07-29T20:18:22.182Z,10.10
2022-07-29T20:20:55.554Z,9.80
2022-07-29T20:23:33.232Z,12.30
2022-07-29T20:26:08.719Z,9.70
2022-07-29T20:28:39.869Z,9.10
2022-07-29T20:31:15.139Z,10.20
2022-07-29T20:33:48.976Z,10.10
2022-07-29T20:36:23.233Z,13.10
2022-07-29T20:39:02.230Z,10.50
2022-07-29T20:41:51.814Z,9.10
2022-07-29T20:44:25.656Z,11.10
2022-07-29T20:47:00.687Z,13.70
2022-07-29T20:49:36.941Z,9.40
2022-07-29T20:52:09.526Z,11.40
2022-07-29T20:54:39.699Z,9.90
2022-07-29T20:57:08.536Z,10.40
2022-07-29T20:59:37.413Z,10.20
2022-07-29T21:02:06.308Z,10.90
2022-07-29T21:04:38.205Z,12.40
2022-07-29T21:07:06.972Z,9.60
2022-07-29T21:09:35.745Z,14.00
2022-07-29T21:12:05.725Z,10.10
2022-07-29T21:14:47.431Z,11.30
2022-07-29T21:17:18.889Z,11.00
2022-07-29T21:19:51.835Z,11.30
2022-07-29T21:22:23.438Z,12.00
2022-07-29T21:24:52.199Z,11.00
2022-07-29T21:27:39.162Z,12.00
2022-07-29T21:30:10.281Z,10.70
2022-07-29T21:32:39.151Z,9.60
2022-07-29T21:35:18.197Z,10.00
2022-07-29T21:38:01.036Z,10.50
2022-07-29T21:40:30.182Z,11.20
2022-07-29T21:42:59.052Z,10.40
2022-07-29T21:45:29.674Z,10.90
2022-07-29T21:47:58.456Z,11.60
2022-07-29T21:50:27.263Z,9.90
2022-07-29T21:52:56.093Z,12.00
2022-07-29T21:55:25.970Z,10.90
2022-07-29T21:57:56.734Z,12.60
2022-07-29T22:00:25.957Z,10.30
2022-07-29T22:02:57.330Z,9.60
2022-07-29T22:05:26.193Z,15.00
2022-07-29T22:07:57.030Z,11.10
2022-07-29T22:10:27.145Z,11.00
2022-07-29T22:12:57.722Z,10.40
2022-07-29T22:15:27.209Z,10.20
2022-07-29T22:17:56.063Z,11.10
2022-07-29T22:20:25.239Z,10.80
2022-07-29T22:22:54.191Z,10.90
2022-07-29T22:25:22.959Z,10.20
2022-07-29T22:27:51.678Z,10.90
2022-07-29T22:30:20.660Z,15.20
2022-07-29T22:32:49.467Z,11.80
2022-07-29T22:35:18.330Z,11.30
2022-07-29T22:37:47.125Z,11.40
2022-07-29T22:40:15.865Z,12.60
2022-07-29T22:42:44.701Z,10.50
2022-07-29T22:45:13.417Z,12.20
2022-07-29T22:47:48.028Z,11.50
2022-07-29T22:50:17.812Z,10.00
2022-07-29T22:52:46.838Z,9.60
2022-07-29T22:55:15.848Z,11.90
2022-07-29T22:57:44.594Z,12.70
2022-07-29T23:00:15.602Z,13.50
2022-07-29T23:02:44.320Z,10.70
2022-07-29T23:05:16.547Z,11.20
2022-07-29T23:07:48.413Z,10.70
2022-07-29T23:10:17.232Z,11.10
2022-07-29T23:12:46.170Z,14.10
2022-07-29T23:15:15.044Z,10.30
2022-07-29T23:17:44.111Z,12.50
2022-07-29T23:20:14.969Z,13.60
2022-07-29T23:22:43.843Z,15.80
2022-07-29T23:25:12.708Z,12.30
2022-07-29T23:27:41.816Z,11.00
2022-07-29T23:30:11.996Z,10.50
2022-07-29T23:32:40.917Z,11.70
2022-07-29T23:35:10.740Z,10.40
2022-07-29T23:40:14.253Z,10.30
2022-07-29T23:42:44.082Z,10.10
2022-07-29T23:45:13.711Z,9.20
2022-07-29T23:47:45.593Z,9.70
2022-07-29T23:50:16.191Z,12.30
2022-07-29T23:52:45.161Z,13.40
2022-07-29T23:55:38.180Z,12.10
2022-07-29T23:58:03.663Z,10.10
